Terminal Aerodrome Forecast
Issued by NWS

Home | Current Version | Previous Version | Text Only | Print | Product List | Glossary On
Versions: 1 2 3 4 5 6 7 8 9 10 11 12 13
411
FTUS44 KBMX 120318 AAA
TAFMGM
TAF AMD
KMGM 120318Z 1203/1224 VRB03KT P6SM SCT035
     FM120700 00000KT P6SM BKN020
      TEMPO 1209/1212 BKN010
     FM121500 28011KT P6SM SCT025 SCT250=

USA.gov is the U.S. government's official web portal to all federal, state and local government web resources and services.